Time;durP1;ratioP1;P1;durP2;ratioP2;P2;SDS_P1;SDS_P2;PMS_P1;PMS_P2;Temp;Humidity;BMP_temperature;BMP_pressure;BME280_temperature;BME280_humidity;BME280_pressure;Samples;Min_cycle;Max_cycle;Signal;HPM_P1;HPM_P2
2023/11/13 00:00:08;;;;;;;9.07;5.70;;;;;;;5.24;84.20;96160.38;4939396;29;20605;-79
2023/11/13 00:02:36;;;;;;;9.32;6.47;;;;;;;5.27;84.53;96162.66;4938702;29;20417;-80
2023/11/13 00:05:04;;;;;;;10.90;6.85;;;;;;;5.32;84.48;96168.16;4938394;29;20131;-80
2023/11/13 00:07:32;;;;;;;9.43;6.88;;;;;;;5.35;83.83;96164.44;4937620;29;20131;-80
2023/11/13 00:10:00;;;;;;;10.98;7.43;;;;;;;5.38;83.92;96164.16;4937582;29;20079;-80
2023/11/13 00:12:28;;;;;;;10.75;7.50;;;;;;;5.43;84.65;96161.06;4937524;29;20051;-80
2023/11/13 00:14:55;;;;;;;8.05;6.38;;;;;;;5.43;83.73;96167.06;4937855;29;20083;-80
2023/11/13 00:17:24;;;;;;;8.18;6.43;;;;;;;5.43;83.13;96174.81;4937491;29;20081;-80
2023/11/13 00:19:52;;;;;;;8.52;6.35;;;;;;;5.44;83.25;96173.03;4937607;29;20059;-80
2023/11/13 00:22:19;;;;;;;7.78;5.53;;;;;;;5.46;83.19;96171.91;4938479;29;20047;-80
2023/11/13 00:24:47;;;;;;;7.55;5.82;;;;;;;5.45;83.64;96175.47;4937372;29;20110;-80
2023/11/13 00:27:15;;;;;;;6.97;5.22;;;;;;;5.47;83.73;96172.72;4937698;29;20075;-79
2023/11/13 00:29:42;;;;;;;6.93;5.57;;;;;;;5.47;83.37;96164.97;4937599;29;20058;-80
2023/11/13 00:32:10;;;;;;;7.13;5.43;;;;;;;5.48;83.59;96169.16;4937205;29;20510;-79
2023/11/13 00:34:39;;;;;;;8.18;5.97;;;;;;;5.52;85.20;96152.34;4937260;29;20063;-80
2023/11/13 00:37:06;;;;;;;9.10;6.68;;;;;;;5.61;86.27;96148.78;4945795;29;20056;-80
2023/11/13 00:39:34;;;;;;;7.32;5.85;;;;;;;5.64;86.01;96126.94;4959782;28;20074;-79
2023/11/13 00:42:02;;;;;;;7.40;5.78;;;;;;;5.63;85.33;96120.97;4960877;28;20035;-79
2023/11/13 00:44:30;;;;;;;8.18;6.63;;;;;;;5.61;84.26;96128.09;4951307;28;20048;-81
2023/11/13 00:46:58;;;;;;;7.10;5.35;;;;;;;5.59;83.90;96127.44;4940634;29;20150;-80
2023/11/13 00:49:25;;;;;;;7.18;5.40;;;;;;;5.59;83.96;96122.25;4938931;29;20056;-80
2023/11/13 00:51:54;;;;;;;7.15;6.07;;;;;;;5.62;84.55;96129.72;4938641;29;20111;-79
2023/11/13 00:54:22;;;;;;;7.38;5.57;;;;;;;5.67;85.20;96130.03;4937832;29;20057;-79
2023/11/13 00:56:50;;;;;;;7.88;5.50;;;;;;;5.73;86.47;96131.97;4937933;29;20051;-79
2023/11/13 00:59:17;;;;;;;8.68;6.72;;;;;;;5.80;87.16;96131.31;4937585;29;20078;-80
2023/11/13 01:01:45;;;;;;;8.55;6.68;;;;;;;5.85;87.73;96123.88;4937112;29;20087;-79
2023/11/13 01:04:13;;;;;;;8.85;6.95;;;;;;;5.86;86.95;96126.31;4937521;29;20087;-80
2023/11/13 01:06:40;;;;;;;8.68;6.80;;;;;;;5.86;86.94;96126.31;4937270;29;20088;-80
2023/11/13 01:09:11;;;;;;;9.13;6.78;;;;;;;5.92;87.99;96130.00;4951281;29;20075;-79
2023/11/13 01:11:39;;;;;;;11.30;6.88;;;;;;;5.96;88.00;96126.94;4959476;29;20055;-78
2023/11/13 01:14:07;;;;;;;10.10;7.30;;;;;;;5.96;87.12;96110.63;4959906;28;20091;-78
2023/11/13 01:16:34;;;;;;;8.43;6.35;;;;;;;5.92;86.60;96109.28;4958509;29;20076;-80
2023/11/13 01:19:02;;;;;;;8.38;6.60;;;;;;;5.92;86.05;96094.56;4951097;29;20072;-80
2023/11/13 01:21:30;;;;;;;8.73;6.72;;;;;;;5.88;84.81;96088.13;4951205;29;20119;-80
2023/11/13 01:23:58;;;;;;;8.13;6.18;;;;;;;5.84;84.19;96086.00;4942362;29;20134;-80
2023/11/13 01:26:27;;;;;;;6.85;5.75;;;;;;;5.80;84.16;96089.91;4936906;29;20139;-80
2023/11/13 01:31:22;;;;;;;7.32;6.10;;;;;;;5.71;84.00;96086.53;5001467;23;20029;-82
2023/11/13 01:33:49;;;;;;;6.90;5.78;;;;;;;5.70;83.93;96074.53;4981401;28;20058;-81
2023/11/13 01:36:17;;;;;;;6.25;4.90;;;;;;;5.69;84.23;96089.28;4980638;28;20035;-81
2023/11/13 01:38:45;;;;;;;7.38;5.90;;;;;;;5.73;85.34;96092.34;4980508;28;20027;-81
2023/11/13 01:41:14;;;;;;;6.50;4.93;;;;;;;5.78;86.63;96098.63;4962572;28;20035;-81
2023/11/13 01:43:43;;;;;;;6.63;4.97;;;;;;;5.84;86.63;96097.19;4961009;28;20039;-81
2023/11/13 01:46:11;;;;;;;5.47;4.50;;;;;;;5.86;85.77;96104.75;4961310;28;20039;-81
2023/11/13 01:48:39;;;;;;;5.40;4.50;;;;;;;5.90;85.59;96100.88;4961168;28;20028;-83
2023/11/13 01:51:08;;;;;;;5.13;4.15;;;;;;;5.94;86.50;96092.66;4961074;28;20054;-82
2023/11/13 01:53:36;;;;;;;6.63;5.15;;;;;;;5.98;86.70;96093.13;4961142;28;20070;-82
2023/11/13 01:56:05;;;;;;;7.60;5.50;;;;;;;6.01;86.57;96081.63;4961068;28;20070;-82
2023/11/13 01:58:32;;;;;;;6.13;5.22;;;;;;;6.02;85.79;96078.09;4960990;28;20032;-81
2023/11/13 02:01:02;;;;;;;6.68;4.80;;;;;;;6.02;85.32;96070.31;4961084;28;20051;-81
2023/11/13 02:03:31;;;;;;;4.97;4.47;;;;;;;6.00;84.82;96064.50;4960918;28;20035;-81
2023/11/13 02:06:00;;;;;;;4.57;4.00;;;;;;;5.98;85.06;96065.47;4960665;28;20028;-81
2023/11/13 02:08:28;;;;;;;4.55;4.10;;;;;;;5.96;85.13;96059.63;4960982;28;20063;-81
2023/11/13 02:10:56;;;;;;;4.85;3.75;;;;;;;5.95;84.89;96062.41;4960683;28;20069;-82
2023/11/13 02:13:25;;;;;;;3.92;3.40;;;;;;;5.94;84.73;96071.09;4960423;28;20043;-81
2023/11/13 02:15:53;;;;;;;4.95;3.60;;;;;;;5.93;84.63;96059.94;4960487;28;20063;-81
2023/11/13 02:18:22;;;;;;;3.33;2.97;;;;;;;5.93;84.87;96059.16;4960890;28;20036;-81
2023/11/13 02:20:50;;;;;;;4.88;3.85;;;;;;;5.95;84.92;96059.81;4960707;28;20060;-82
2023/11/13 02:23:19;;;;;;;4.32;3.08;;;;;;;5.94;84.74;96052.97;4960612;28;20035;-82
2023/11/13 02:25:51;;;;;;;3.85;3.00;;;;;;;5.94;85.16;96059.00;4960587;28;20036;-82
2023/11/13 02:28:19;;;;;;;3.08;2.78;;;;;;;5.95;85.24;96052.06;4960779;28;20035;-82
2023/11/13 02:30:47;;;;;;;2.97;2.30;;;;;;;5.95;85.51;96052.06;4960593;28;20059;-82
2023/11/13 02:33:15;;;;;;;4.43;2.50;;;;;;;5.97;85.60;96044.94;4960714;28;20091;-82
2023/11/13 02:35:43;;;;;;;2.38;2.17;;;;;;;5.96;85.56;96044.09;4960372;28;20031;-81
2023/11/13 02:38:11;;;;;;;3.60;2.72;;;;;;;5.99;85.94;96048.13;4960387;28;20035;-82
2023/11/13 02:40:41;;;;;;;2.42;2.20;;;;;;;6.01;86.12;96055.75;4960357;28;20032;-81
2023/11/13 02:43:09;;;;;;;4.07;3.00;;;;;;;6.02;85.83;96042.66;4960337;28;20042;-81
2023/11/13 02:45:36;;;;;;;3.70;2.78;;;;;;;6.04;85.94;96056.22;4960440;28;20047;-82
2023/11/13 02:48:05;;;;;;;4.43;3.00;;;;;;;6.05;86.41;96049.25;4960484;28;20040;-82
2023/11/13 02:50:33;;;;;;;4.03;3.40;;;;;;;6.07;86.51;96029.19;4960466;28;20055;-81
2023/11/13 02:53:01;;;;;;;3.47;3.17;;;;;;;6.07;86.42;96037.75;4960396;28;20056;-82
2023/11/13 02:55:29;;;;;;;3.10;2.80;;;;;;;6.09;86.21;96040.19;4960425;28;20032;-82
2023/11/13 02:57:59;;;;;;;3.63;3.10;;;;;;;6.09;86.48;96038.41;4960345;28;20044;-81
2023/11/13 03:00:27;;;;;;;4.68;3.17;;;;;;;6.09;85.92;96020.28;4960058;28;20067;-82
2023/11/13 03:02:55;;;;;;;5.00;3.20;;;;;;;6.06;86.08;96018.03;4960305;28;20035;-82
2023/11/13 03:05:22;;;;;;;4.10;2.60;;;;;;;6.07;86.27;96024.81;4960212;28;20056;-82
2023/11/13 03:07:50;;;;;;;3.53;2.40;;;;;;;6.08;86.49;96026.44;4960140;28;20052;-81
2023/11/13 03:10:18;;;;;;;2.63;2.33;;;;;;;6.12;86.67;96013.94;4960018;28;20036;-82
2023/11/13 03:12:46;;;;;;;3.65;2.83;;;;;;;6.13;86.65;96018.97;4960330;28;20028;-82
2023/11/13 03:15:16;;;;;;;3.08;2.22;;;;;;;6.15;86.75;96006.66;4960096;28;20088;-81
2023/11/13 03:17:43;;;;;;;2.33;2.00;;;;;;;6.16;86.91;96018.63;4960056;28;20035;-81
2023/11/13 03:20:12;;;;;;;2.78;2.03;;;;;;;6.18;86.84;96016.66;4960038;28;20046;-81
2023/11/13 03:22:40;;;;;;;2.42;2.20;;;;;;;6.20;87.06;96013.94;4960270;28;20032;-81
2023/11/13 03:25:10;;;;;;;2.28;1.75;;;;;;;6.22;87.25;96017.16;4959987;28;20036;-82
2023/11/13 03:27:38;;;;;;;2.58;1.88;;;;;;;6.24;87.42;96011.81;4962904;28;20031;-82
2023/11/13 03:30:08;;;;;;;2.47;1.70;;;;;;;6.27;87.39;96014.84;4963418;28;20091;-82
2023/11/13 03:32:37;;;;;;;1.83;1.52;;;;;;;6.30;87.64;96018.91;4963680;28;20048;-81
2023/11/13 03:35:06;;;;;;;1.48;1.38;;;;;;;6.34;87.78;96020.16;4963556;28;20039;-81
2023/11/13 03:37:34;;;;;;;2.75;1.88;;;;;;;6.37;88.17;96027.63;4963576;28;20098;-82
2023/11/13 03:40:02;;;;;;;2.53;1.50;;;;;;;6.42;88.27;96012.38;4963301;28;20067;-81
2023/11/13 03:42:30;;;;;;;1.65;1.55;;;;;;;6.45;88.32;96022.41;4963314;28;20035;-81
2023/11/13 03:44:58;;;;;;;1.30;1.17;;;;;;;6.47;88.50;96020.44;4963403;28;20044;-82
2023/11/13 03:47:26;;;;;;;2.03;1.40;;;;;;;6.51;88.79;96019.09;4963340;28;20068;-82
2023/11/13 03:49:56;;;;;;;1.38;1.25;;;;;;;6.55;89.23;96007.44;4963242;28;20046;-81
2023/11/13 03:52:24;;;;;;;1.63;1.52;;;;;;;6.59;89.18;96002.72;4963285;28;20063;-81
2023/11/13 03:54:52;;;;;;;1.92;1.67;;;;;;;6.64;89.30;96009.97;4962958;28;20048;-82
2023/11/13 03:57:20;;;;;;;1.67;1.23;;;;;;;6.67;89.38;96007.03;4963211;28;20036;-82
2023/11/13 03:59:48;;;;;;;1.52;1.10;;;;;;;6.70;89.59;96001.53;4963071;28;20107;-82
2023/11/13 04:02:15;;;;;;;1.25;1.08;;;;;;;6.71;89.54;95996.19;4963231;28;20058;-82
2023/11/13 04:04:43;;;;;;;1.52;1.23;;;;;;;6.72;89.57;95991.78;4963097;28;20036;-82
2023/11/13 04:07:12;;;;;;;1.50;1.38;;;;;;;6.75;89.46;95996.63;4963155;28;20059;-82
2023/11/13 04:09:40;;;;;;;1.52;1.33;;;;;;;6.77;89.47;95992.06;4963032;28;20028;-81
2023/11/13 04:12:09;;;;;;;2.40;1.40;;;;;;;6.79;89.49;96003.06;4963045;28;20068;-81
2023/11/13 04:14:37;;;;;;;1.42;1.33;;;;;;;6.81;89.30;96003.72;4962793;28;20032;-81
2023/11/13 04:17:07;;;;;;;2.33;1.67;;;;;;;6.83;89.15;96006.16;4962830;28;20036;-82
2023/11/13 04:19:34;;;;;;;2.67;2.05;;;;;;;6.81;89.23;96014.09;4962642;28;20039;-82
2023/11/13 04:22:02;;;;;;;1.98;1.55;;;;;;;6.79;89.23;96024.63;4962749;28;20055;-82
2023/11/13 04:24:32;;;;;;;1.70;1.42;;;;;;;6.82;89.38;96015.69;4962691;28;20051;-82
2023/11/13 04:26:59;;;;;;;2.42;1.75;;;;;;;6.81;89.31;96043.41;4962620;28;20032;-82
2023/11/13 04:29:29;;;;;;;2.63;1.60;;;;;;;6.84;89.77;96021.50;4962485;28;20035;-82
2023/11/13 04:31:57;;;;;;;2.33;1.60;;;;;;;6.87;90.14;96025.56;4962622;28;20031;-82
2023/11/13 04:34:25;;;;;;;1.92;1.73;;;;;;;6.90;90.43;96041.56;4962330;28;20079;-82
2023/11/13 04:36:53;;;;;;;1.88;1.50;;;;;;;6.94;90.46;96035.06;4962027;28;20088;-82
2023/11/13 04:39:23;;;;;;;3.45;1.45;;;;;;;7.01;90.82;96040.34;4962292;28;20040;-81
2023/11/13 04:41:52;;;;;;;1.25;1.00;;;;;;;7.06;91.55;96045.03;4962468;28;20047;-82
2023/11/13 04:44:20;;;;;;;3.25;1.55;;;;;;;7.12;91.80;96049.53;4962188;28;20071;-82
2023/11/13 04:46:48;;;;;;;4.15;1.30;;;;;;;7.17;92.00;96054.97;4962379;28;20032;-81
2023/11/13 04:49:16;;;;;;;1.52;1.17;;;;;;;7.21;91.62;96062.28;4962167;28;20091;-81
2023/11/13 04:51:44;;;;;;;1.65;1.38;;;;;;;7.26;92.07;96056.56;4962163;28;20063;-82
2023/11/13 04:54:12;;;;;;;3.08;1.52;;;;;;;7.33;92.23;96059.25;4962122;28;20031;-81
2023/11/13 04:56:40;;;;;;;2.80;1.88;;;;;;;7.39;92.68;96051.59;4962066;28;20055;-82
2023/11/13 04:59:11;;;;;;;1.92;1.70;;;;;;;7.45;93.37;96051.84;4962059;28;20059;-82
2023/11/13 05:01:39;;;;;;;3.97;1.80;;;;;;;7.50;93.40;96045.16;4962040;28;20039;-81
2023/11/13 05:04:08;;;;;;;3.65;2.10;;;;;;;7.56;93.25;96051.44;4961955;28;20059;-82
2023/11/13 05:06:36;;;;;;;2.55;1.80;;;;;;;7.61;93.43;96043.94;4961748;28;20059;-82
2023/11/13 05:09:04;;;;;;;3.88;2.20;;;;;;;7.66;93.51;96046.81;4961752;28;20044;-81
2023/11/13 05:11:32;;;;;;;3.95;1.98;;;;;;;7.73;93.78;96039.09;4961799;28;20043;-82
2023/11/13 05:14:00;;;;;;;4.65;2.28;;;;;;;7.79;94.05;96043.59;4946059;28;20023;-82
2023/11/13 05:16:30;;;;;;;3.13;2.20;;;;;;;7.86;94.65;96046.28;4953625;28;20028;-82
2023/11/13 05:18:58;;;;;;;4.00;2.28;;;;;;;7.95;95.00;96053.00;4956746;28;20055;-82
2023/11/13 05:21:26;;;;;;;6.75;3.03;;;;;;;8.04;95.53;96051.94;4942940;28;20032;-82
2023/11/13 05:23:55;;;;;;;7.53;2.97;;;;;;;8.10;95.89;96048.63;4944692;28;20056;-82
2023/11/13 05:28:58;;;;;;;7.90;2.72;;;;;;;8.24;96.11;96053.00;5213466;23;20043;-82
2023/11/13 05:31:27;;;;;;;3.13;2.53;;;;;;;8.29;95.84;96062.88;4941030;28;20055;-82
2023/11/13 05:33:57;;;;;;;5.13;2.10;;;;;;;8.34;96.20;96057.91;4937930;28;20052;-82
2023/11/13 05:36:24;;;;;;;4.88;2.03;;;;;;;8.39;95.99;96059.97;4957833;28;20031;-83
2023/11/13 05:38:54;;;;;;;3.08;1.90;;;;;;;8.43;96.04;96059.47;4960866;28;20040;-82
2023/11/13 05:41:22;;;;;;;3.67;2.05;;;;;;;8.49;95.84;96049.34;4944753;28;20051;-82
2023/11/13 05:43:52;;;;;;;3.00;1.70;;;;;;;8.52;95.78;96052.38;4948724;28;20047;-82
2023/11/13 05:46:19;;;;;;;6.45;1.75;;;;;;;8.56;95.56;96056.22;4956126;29;20063;-82
2023/11/13 05:48:47;;;;;;;4.18;2.40;;;;;;;8.60;95.61;96052.28;4957617;28;20119;-82
2023/11/13 05:51:18;;;;;;;7.28;2.20;;;;;;;8.65;95.73;96055.13;4961404;28;20036;-81
2023/11/13 05:53:46;;;;;;;8.35;2.15;;;;;;;8.68;95.56;96055.75;4961427;28;20036;-82
2023/11/13 05:56:16;;;;;;;3.25;2.38;;;;;;;8.71;95.28;96048.38;4961191;28;20075;-82
2023/11/13 05:58:44;;;;;;;4.72;2.20;;;;;;;8.75;95.37;96047.03;4961426;28;20072;-82
2023/11/13 06:01:18;;;;;;;5.53;2.10;;;;;;;8.78;95.73;96048.47;5003177;23;20295;-82
2023/11/13 06:03:47;;;;;;;6.40;2.17;;;;;;;8.80;95.07;96044.69;5181368;23;20019;-83
2023/11/13 06:06:17;;;;;;;5.05;1.83;;;;;;;8.85;94.98;96049.34;4980250;28;20074;-82
2023/11/13 15:25:24;;;;;;;2.25;1.08;;;;;;;12.32;94.46;95784.75;1739811;23;20292;-78
2023/11/13 15:27:53;;;;;;;2.72;1.25;;;;;;;12.30;93.06;95778.94;4906173;29;20071;-81
2023/11/13 22:35:59;;;;;;;2.53;0.70;;;;;;;12.93;84.25;95940.31;4973306;23;20584;-82
2023/11/13 22:38:27;;;;;;;2.88;0.80;;;;;;;12.82;84.19;95944.41;4881030;29;20091;-82
2023/11/13 22:40:54;;;;;;;3.33;1.00;;;;;;;12.72;84.14;95950.09;4881179;29;20057;-81
2023/11/13 22:43:23;;;;;;;3.00;0.77;;;;;;;12.66;84.80;95944.91;4880756;29;20116;-81
2023/11/13 22:45:50;;;;;;;2.42;0.90;;;;;;;12.58;84.04;95969.50;4880842;29;20056;-81
2023/11/13 22:48:18;;;;;;;5.60;1.48;;;;;;;12.48;83.77;95953.44;4880429;29;20084;-81
2023/11/13 22:50:46;;;;;;;8.60;1.40;;;;;;;12.42;84.15;95959.50;4883267;29;20053;-82
2023/11/13 22:53:15;;;;;;;5.68;1.02;;;;;;;12.35;83.50;95960.38;4884012;29;20061;-81
2023/11/13 22:55:43;;;;;;;3.85;1.38;;;;;;;12.32;83.70;95970.44;4883227;29;20072;-82
2023/11/13 22:58:10;;;;;;;6.38;1.48;;;;;;;12.26;83.34;95966.81;4880628;29;20060;-81
2023/11/13 23:00:39;;;;;;;3.60;1.15;;;;;;;12.22;83.90;95947.31;4878471;29;20096;-82
2023/11/13 23:03:10;;;;;;;4.10;1.10;;;;;;;12.20;83.40;95962.44;4879183;29;20415;-82
2023/11/13 23:05:38;;;;;;;3.88;1.77;;;;;;;12.16;83.54;95961.25;4879370;29;20057;-82
2023/11/13 23:08:06;;;;;;;4.25;1.02;;;;;;;12.13;83.28;95954.63;4879187;29;20058;-82
2023/11/13 23:10:35;;;;;;;4.53;1.42;;;;;;;12.10;83.38;95964.69;4878518;29;20095;-81
2023/11/13 23:13:02;;;;;;;8.38;1.75;;;;;;;12.07;82.93;95954.63;4878360;29;20049;-81
2023/11/13 23:15:30;;;;;;;7.65;1.42;;;;;;;12.04;83.40;95957.66;4877526;29;20049;-81
2023/11/13 23:17:58;;;;;;;2.35;0.98;;;;;;;12.00;84.34;95946.81;4877567;29;20049;-82
2023/11/13 23:20:26;;;;;;;5.68;1.42;;;;;;;11.98;83.92;95955.88;4876616;29;20085;-82
2023/11/13 23:22:53;;;;;;;4.30;1.10;;;;;;;11.94;83.14;95956.28;4876986;29;20084;-82
2023/11/13 23:25:21;;;;;;;5.82;1.15;;;;;;;11.91;83.16;95972.38;4877220;29;20049;-82
2023/11/13 23:27:51;;;;;;;3.55;1.10;;;;;;;11.88;82.58;95970.19;4876977;29;20082;-81
2023/11/13 23:30:18;;;;;;;4.80;1.50;;;;;;;11.84;82.99;95982.00;4876959;29;20057;-82
2023/11/13 23:32:46;;;;;;;3.35;1.52;;;;;;;11.82;83.89;95991.88;4876936;29;20104;-81
2023/11/13 23:35:14;;;;;;;4.88;1.23;;;;;;;11.81;83.69;95971.19;4876548;29;20045;-82
2023/11/13 23:37:43;;;;;;;6.43;1.98;;;;;;;11.77;83.40;95978.63;4876072;29;20069;-81
2023/11/13 23:40:13;;;;;;;11.23;1.73;;;;;;;11.77;84.74;95981.22;4876658;29;20140;-81
2023/11/13 23:42:41;;;;;;;4.00;1.63;;;;;;;11.78;85.00;95995.09;4877994;29;20113;-82
2023/11/13 23:45:11;;;;;;;6.95;1.90;;;;;;;11.77;85.63;95975.22;4880271;29;20068;-81
2023/11/13 23:47:39;;;;;;;8.02;2.20;;;;;;;11.72;84.31;95966.16;4879496;29;20080;-82
2023/11/13 23:50:08;;;;;;;6.95;1.67;;;;;;;11.70;84.58;95967.38;4879987;29;20057;-82
2023/11/13 23:52:37;;;;;;;7.20;1.80;;;;;;;11.70;85.44;95973.41;4879463;29;20065;-81
2023/11/13 23:55:06;;;;;;;7.18;2.10;;;;;;;11.69;85.82;95971.00;4879467;29;20062;-81
2023/11/13 23:57:34;;;;;;;5.32;1.77;;;;;;;11.69;86.44;95945.66;4879950;29;20057;-82
